sensor_id;sensor_type;location;lat;lon;timestamp;P1;durP1;ratioP1;P2;durP2;ratioP2
45728;SDS011;31439;53.512;10.206;2024-01-30T00:01:02;10.52;;;6.20;;
45728;SDS011;31439;53.512;10.206;2024-01-30T00:03:27;8.57;;;5.70;;
45728;SDS011;31439;53.512;10.206;2024-01-30T00:05:55;10.27;;;6.03;;
45728;SDS011;31439;53.512;10.206;2024-01-30T00:08:20;9.52;;;6.10;;
45728;SDS011;31439;53.512;10.206;2024-01-30T00:10:46;10.23;;;5.70;;
45728;SDS011;31439;53.512;10.206;2024-01-30T00:13:11;8.85;;;5.72;;
45728;SDS011;31439;53.512;10.206;2024-01-30T00:15:39;8.80;;;5.93;;
45728;SDS011;31439;53.512;10.206;2024-01-30T00:18:04;10.25;;;6.20;;
45728;SDS011;31439;53.512;10.206;2024-01-30T00:20:30;7.30;;;5.45;;
45728;SDS011;31439;53.512;10.206;2024-01-30T00:22:55;10.38;;;6.05;;
45728;SDS011;31439;53.512;10.206;2024-01-30T00:25:21;9.18;;;5.53;;
45728;SDS011;31439;53.512;10.206;2024-01-30T00:27:46;8.52;;;5.90;;
45728;SDS011;31439;53.512;10.206;2024-01-30T00:30:12;8.35;;;5.55;;
45728;SDS011;31439;53.512;10.206;2024-01-30T00:32:38;7.82;;;5.93;;
45728;SDS011;31439;53.512;10.206;2024-01-30T00:35:04;10.55;;;6.15;;
45728;SDS011;31439;53.512;10.206;2024-01-30T00:37:30;9.07;;;5.88;;
45728;SDS011;31439;53.512;10.206;2024-01-30T00:39:56;8.18;;;5.78;;
45728;SDS011;31439;53.512;10.206;2024-01-30T00:42:22;10.65;;;6.18;;
45728;SDS011;31439;53.512;10.206;2024-01-30T00:44:49;8.65;;;6.18;;
45728;SDS011;31439;53.512;10.206;2024-01-30T00:47:14;9.63;;;6.47;;
45728;SDS011;31439;53.512;10.206;2024-01-30T00:49:40;9.55;;;6.43;;
45728;SDS011;31439;53.512;10.206;2024-01-30T00:52:06;9.93;;;5.95;;
45728;SDS011;31439;53.512;10.206;2024-01-30T00:54:31;9.32;;;6.07;;
45728;SDS011;31439;53.512;10.206;2024-01-30T00:56:57;10.85;;;5.93;;
45728;SDS011;31439;53.512;10.206;2024-01-30T00:59:23;8.82;;;6.03;;
45728;SDS011;31439;53.512;10.206;2024-01-30T01:01:48;10.63;;;6.45;;
45728;SDS011;31439;53.512;10.206;2024-01-30T01:04:14;10.93;;;6.60;;
45728;SDS011;31439;53.512;10.206;2024-01-30T01:06:39;10.00;;;6.43;;
45728;SDS011;31439;53.512;10.206;2024-01-30T01:09:07;11.38;;;6.60;;
45728;SDS011;31439;53.512;10.206;2024-01-30T01:11:33;10.38;;;6.03;;
45728;SDS011;31439;53.512;10.206;2024-01-30T01:13:58;10.15;;;6.07;;
45728;SDS011;31439;53.512;10.206;2024-01-30T01:16:24;9.15;;;6.03;;
45728;SDS011;31439;53.512;10.206;2024-01-30T01:18:50;8.35;;;5.93;;
45728;SDS011;31439;53.512;10.206;2024-01-30T01:21:15;10.90;;;6.30;;
45728;SDS011;31439;53.512;10.206;2024-01-30T01:23:41;9.50;;;6.15;;
45728;SDS011;31439;53.512;10.206;2024-01-30T01:26:07;12.88;;;6.13;;
45728;SDS011;31439;53.512;10.206;2024-01-30T01:28:34;10.20;;;6.22;;
45728;SDS011;31439;53.512;10.206;2024-01-30T01:31:00;13.23;;;6.65;;
45728;SDS011;31439;53.512;10.206;2024-01-30T01:33:30;10.00;;;6.40;;
45728;SDS011;31439;53.512;10.206;2024-01-30T01:35:57;10.68;;;6.00;;
45728;SDS011;31439;53.512;10.206;2024-01-30T01:38:23;9.55;;;6.22;;
45728;SDS011;31439;53.512;10.206;2024-01-30T01:40:49;14.77;;;6.82;;
45728;SDS011;31439;53.512;10.206;2024-01-30T01:43:16;11.45;;;6.60;;
45728;SDS011;31439;53.512;10.206;2024-01-30T01:45:42;9.60;;;6.57;;
45728;SDS011;31439;53.512;10.206;2024-01-30T01:48:07;11.35;;;6.47;;
45728;SDS011;31439;53.512;10.206;2024-01-30T01:50:34;10.55;;;6.20;;
45728;SDS011;31439;53.512;10.206;2024-01-30T01:53:00;10.65;;;6.70;;
45728;SDS011;31439;53.512;10.206;2024-01-30T01:55:28;10.05;;;6.72;;
45728;SDS011;31439;53.512;10.206;2024-01-30T01:57:55;13.20;;;6.72;;
45728;SDS011;31439;53.512;10.206;2024-01-30T02:00:21;11.73;;;7.30;;
45728;SDS011;31439;53.512;10.206;2024-01-30T02:02:47;10.25;;;6.75;;
45728;SDS011;31439;53.512;10.206;2024-01-30T02:05:13;10.38;;;6.78;;
45728;SDS011;31439;53.512;10.206;2024-01-30T02:07:39;14.13;;;7.43;;
45728;SDS011;31439;53.512;10.206;2024-01-30T02:10:07;9.70;;;6.70;;
45728;SDS011;31439;53.512;10.206;2024-01-30T02:12:34;9.50;;;6.35;;
45728;SDS011;31439;53.512;10.206;2024-01-30T02:14:59;10.32;;;6.22;;
45728;SDS011;31439;53.512;10.206;2024-01-30T02:17:25;11.05;;;7.28;;
45728;SDS011;31439;53.512;10.206;2024-01-30T02:19:51;10.95;;;6.50;;
45728;SDS011;31439;53.512;10.206;2024-01-30T02:22:17;11.05;;;6.82;;
45728;SDS011;31439;53.512;10.206;2024-01-30T02:24:44;12.65;;;6.70;;
45728;SDS011;31439;53.512;10.206;2024-01-30T02:27:10;10.90;;;6.63;;
45728;SDS011;31439;53.512;10.206;2024-01-30T02:29:35;15.05;;;6.88;;
45728;SDS011;31439;53.512;10.206;2024-01-30T02:32:01;12.57;;;7.32;;
45728;SDS011;31439;53.512;10.206;2024-01-30T02:34:27;10.88;;;6.45;;
45728;SDS011;31439;53.512;10.206;2024-01-30T02:36:52;10.50;;;6.72;;
45728;SDS011;31439;53.512;10.206;2024-01-30T02:39:18;12.25;;;7.13;;
45728;SDS011;31439;53.512;10.206;2024-01-30T02:41:43;9.90;;;6.80;;
45728;SDS011;31439;53.512;10.206;2024-01-30T02:44:09;9.02;;;6.68;;
45728;SDS011;31439;53.512;10.206;2024-01-30T02:46:35;9.07;;;6.60;;
45728;SDS011;31439;53.512;10.206;2024-01-30T02:49:00;10.63;;;7.30;;
45728;SDS011;31439;53.512;10.206;2024-01-30T02:51:26;15.20;;;7.22;;
45728;SDS011;31439;53.512;10.206;2024-01-30T02:53:52;10.68;;;7.57;;
45728;SDS011;31439;53.512;10.206;2024-01-30T02:56:18;10.32;;;6.90;;
45728;SDS011;31439;53.512;10.206;2024-01-30T02:58:43;10.48;;;7.30;;
45728;SDS011;31439;53.512;10.206;2024-01-30T03:01:09;11.15;;;7.75;;
45728;SDS011;31439;53.512;10.206;2024-01-30T03:03:34;9.20;;;7.10;;
45728;SDS011;31439;53.512;10.206;2024-01-30T03:06:01;11.23;;;7.28;;
45728;SDS011;31439;53.512;10.206;2024-01-30T03:08:27;12.40;;;7.28;;
45728;SDS011;31439;53.512;10.206;2024-01-30T03:10:52;12.10;;;7.07;;
45728;SDS011;31439;53.512;10.206;2024-01-30T03:13:18;12.35;;;7.68;;
45728;SDS011;31439;53.512;10.206;2024-01-30T03:15:44;10.50;;;7.10;;
45728;SDS011;31439;53.512;10.206;2024-01-30T03:18:10;12.10;;;7.25;;
45728;SDS011;31439;53.512;10.206;2024-01-30T03:20:35;9.55;;;6.85;;
45728;SDS011;31439;53.512;10.206;2024-01-30T03:23:01;10.52;;;7.18;;
45728;SDS011;31439;53.512;10.206;2024-01-30T03:25:27;10.52;;;7.03;;
45728;SDS011;31439;53.512;10.206;2024-01-30T03:27:52;12.45;;;7.20;;
45728;SDS011;31439;53.512;10.206;2024-01-30T03:30:18;10.15;;;7.15;;
45728;SDS011;31439;53.512;10.206;2024-01-30T03:32:43;9.73;;;7.38;;
45728;SDS011;31439;53.512;10.206;2024-01-30T03:35:09;16.42;;;7.80;;
45728;SDS011;31439;53.512;10.206;2024-01-30T03:37:35;15.57;;;7.93;;
45728;SDS011;31439;53.512;10.206;2024-01-30T03:40:01;14.18;;;7.97;;
45728;SDS011;31439;53.512;10.206;2024-01-30T03:42:27;13.02;;;8.00;;
45728;SDS011;31439;53.512;10.206;2024-01-30T03:44:53;12.75;;;7.28;;
45728;SDS011;31439;53.512;10.206;2024-01-30T03:47:20;12.15;;;7.43;;
45728;SDS011;31439;53.512;10.206;2024-01-30T03:49:46;11.15;;;7.43;;
45728;SDS011;31439;53.512;10.206;2024-01-30T03:52:11;13.48;;;7.72;;
45728;SDS011;31439;53.512;10.206;2024-01-30T03:54:37;12.35;;;8.48;;
45728;SDS011;31439;53.512;10.206;2024-01-30T03:57:03;11.38;;;7.68;;
45728;SDS011;31439;53.512;10.206;2024-01-30T03:59:29;11.23;;;7.97;;
45728;SDS011;31439;53.512;10.206;2024-01-30T04:01:54;13.82;;;8.07;;
45728;SDS011;31439;53.512;10.206;2024-01-30T04:04:20;13.35;;;8.25;;
45728;SDS011;31439;53.512;10.206;2024-01-30T04:06:46;16.15;;;8.27;;
45728;SDS011;31439;53.512;10.206;2024-01-30T04:09:12;12.20;;;8.32;;
45728;SDS011;31439;53.512;10.206;2024-01-30T04:11:38;11.98;;;8.13;;
45728;SDS011;31439;53.512;10.206;2024-01-30T04:14:04;15.02;;;7.97;;
45728;SDS011;31439;53.512;10.206;2024-01-30T04:16:30;15.05;;;8.65;;
45728;SDS011;31439;53.512;10.206;2024-01-30T04:18:56;19.00;;;8.43;;
45728;SDS011;31439;53.512;10.206;2024-01-30T04:21:21;12.07;;;7.80;;
45728;SDS011;31439;53.512;10.206;2024-01-30T04:23:47;13.68;;;7.90;;
45728;SDS011;31439;53.512;10.206;2024-01-30T04:26:13;13.10;;;8.63;;
45728;SDS011;31439;53.512;10.206;2024-01-30T04:28:44;15.07;;;8.43;;
45728;SDS011;31439;53.512;10.206;2024-01-30T04:31:10;12.40;;;7.80;;
45728;SDS011;31439;53.512;10.206;2024-01-30T04:33:36;12.98;;;8.35;;
45728;SDS011;31439;53.512;10.206;2024-01-30T04:36:02;12.85;;;8.82;;
45728;SDS011;31439;53.512;10.206;2024-01-30T04:38:28;15.02;;;8.95;;
45728;SDS011;31439;53.512;10.206;2024-01-30T04:40:54;12.23;;;8.27;;
45728;SDS011;31439;53.512;10.206;2024-01-30T04:43:20;14.27;;;8.55;;
45728;SDS011;31439;53.512;10.206;2024-01-30T04:45:46;13.20;;;9.18;;
45728;SDS011;31439;53.512;10.206;2024-01-30T04:48:12;16.48;;;8.68;;
45728;SDS011;31439;53.512;10.206;2024-01-30T04:50:38;14.77;;;9.00;;
45728;SDS011;31439;53.512;10.206;2024-01-30T04:53:03;13.63;;;9.18;;
45728;SDS011;31439;53.512;10.206;2024-01-30T04:55:29;18.77;;;9.15;;
45728;SDS011;31439;53.512;10.206;2024-01-30T04:57:55;13.13;;;8.80;;
45728;SDS011;31439;53.512;10.206;2024-01-30T05:00:20;11.93;;;8.25;;
45728;SDS011;31439;53.512;10.206;2024-01-30T05:02:46;14.98;;;8.98;;
45728;SDS011;31439;53.512;10.206;2024-01-30T05:05:11;16.25;;;8.70;;
45728;SDS011;31439;53.512;10.206;2024-01-30T05:07:38;19.58;;;9.93;;
45728;SDS011;31439;53.512;10.206;2024-01-30T05:10:06;13.50;;;9.32;;
45728;SDS011;31439;53.512;10.206;2024-01-30T05:12:33;15.60;;;8.50;;
45728;SDS011;31439;53.512;10.206;2024-01-30T05:14:59;14.55;;;8.70;;
45728;SDS011;31439;53.512;10.206;2024-01-30T05:17:24;13.07;;;8.23;;
45728;SDS011;31439;53.512;10.206;2024-01-30T05:19:50;14.07;;;9.00;;
45728;SDS011;31439;53.512;10.206;2024-01-30T05:22:15;13.57;;;8.93;;
45728;SDS011;31439;53.512;10.206;2024-01-30T05:24:43;12.57;;;8.93;;
45728;SDS011;31439;53.512;10.206;2024-01-30T05:27:09;12.75;;;8.85;;
45728;SDS011;31439;53.512;10.206;2024-01-30T05:29:34;13.63;;;9.27;;
45728;SDS011;31439;53.512;10.206;2024-01-30T05:32:00;13.18;;;9.05;;
45728;SDS011;31439;53.512;10.206;2024-01-30T05:34:26;15.02;;;9.40;;
45728;SDS011;31439;53.512;10.206;2024-01-30T05:36:52;13.82;;;9.52;;
45728;SDS011;31439;53.512;10.206;2024-01-30T05:39:17;15.77;;;9.90;;
45728;SDS011;31439;53.512;10.206;2024-01-30T05:41:43;13.75;;;8.77;;
45728;SDS011;31439;53.512;10.206;2024-01-30T05:44:08;13.45;;;9.20;;
45728;SDS011;31439;53.512;10.206;2024-01-30T05:46:35;12.77;;;9.32;;
45728;SDS011;31439;53.512;10.206;2024-01-30T05:49:00;15.20;;;9.27;;
45728;SDS011;31439;53.512;10.206;2024-01-30T05:51:26;15.63;;;9.95;;
45728;SDS011;31439;53.512;10.206;2024-01-30T05:53:53;18.98;;;10.48;;
45728;SDS011;31439;53.512;10.206;2024-01-30T05:56:19;14.55;;;10.20;;
45728;SDS011;31439;53.512;10.206;2024-01-30T05:58:44;15.40;;;9.13;;
45728;SDS011;31439;53.512;10.206;2024-01-30T06:01:10;14.80;;;9.52;;
45728;SDS011;31439;53.512;10.206;2024-01-30T06:03:36;15.30;;;10.10;;
45728;SDS011;31439;53.512;10.206;2024-01-30T06:06:02;14.63;;;9.93;;
45728;SDS011;31439;53.512;10.206;2024-01-30T06:08:27;16.25;;;9.95;;
45728;SDS011;31439;53.512;10.206;2024-01-30T06:10:53;16.55;;;10.70;;
45728;SDS011;31439;53.512;10.206;2024-01-30T06:13:19;17.15;;;9.60;;
45728;SDS011;31439;53.512;10.206;2024-01-30T06:15:45;17.02;;;9.95;;
45728;SDS011;31439;53.512;10.206;2024-01-30T06:18:11;14.70;;;10.02;;
45728;SDS011;31439;53.512;10.206;2024-01-30T06:20:36;14.05;;;9.85;;
45728;SDS011;31439;53.512;10.206;2024-01-30T06:23:02;15.63;;;10.02;;
45728;SDS011;31439;53.512;10.206;2024-01-30T06:25:28;14.50;;;9.68;;
45728;SDS011;31439;53.512;10.206;2024-01-30T06:27:53;17.13;;;10.82;;
45728;SDS011;31439;53.512;10.206;2024-01-30T06:30:19;13.38;;;10.38;;
45728;SDS011;31439;53.512;10.206;2024-01-30T06:32:45;14.98;;;10.30;;
45728;SDS011;31439;53.512;10.206;2024-01-30T06:35:10;17.35;;;10.48;;
45728;SDS011;31439;53.512;10.206;2024-01-30T06:37:36;17.92;;;10.00;;
45728;SDS011;31439;53.512;10.206;2024-01-30T06:40:02;48.30;;;13.20;;
45728;SDS011;31439;53.512;10.206;2024-01-30T06:42:30;23.10;;;11.68;;
45728;SDS011;31439;53.512;10.206;2024-01-30T06:44:56;23.98;;;10.98;;
45728;SDS011;31439;53.512;10.206;2024-01-30T06:47:21;18.33;;;10.50;;
45728;SDS011;31439;53.512;10.206;2024-01-30T06:49:47;24.05;;;11.02;;
45728;SDS011;31439;53.512;10.206;2024-01-30T06:52:12;17.20;;;10.20;;
45728;SDS011;31439;53.512;10.206;2024-01-30T06:54:39;16.65;;;10.80;;
45728;SDS011;31439;53.512;10.206;2024-01-30T06:57:05;17.70;;;10.80;;
45728;SDS011;31439;53.512;10.206;2024-01-30T06:59:34;15.60;;;11.00;;
45728;SDS011;31439;53.512;10.206;2024-01-30T07:01:59;20.00;;;11.15;;
45728;SDS011;31439;53.512;10.206;2024-01-30T07:04:25;20.20;;;12.30;;
45728;SDS011;31439;53.512;10.206;2024-01-30T07:06:51;24.70;;;12.60;;
45728;SDS011;31439;53.512;10.206;2024-01-30T07:09:18;28.60;;;12.23;;
45728;SDS011;31439;53.512;10.206;2024-01-30T07:11:44;18.55;;;10.90;;
45728;SDS011;31439;53.512;10.206;2024-01-30T07:14:09;18.77;;;11.40;;
45728;SDS011;31439;53.512;10.206;2024-01-30T07:16:35;17.45;;;11.13;;
45728;SDS011;31439;53.512;10.206;2024-01-30T07:19:01;17.63;;;11.38;;
45728;SDS011;31439;53.512;10.206;2024-01-30T07:21:27;18.13;;;11.32;;
45728;SDS011;31439;53.512;10.206;2024-01-30T07:23:56;15.65;;;11.25;;
45728;SDS011;31439;53.512;10.206;2024-01-30T07:26:22;17.88;;;11.85;;
45728;SDS011;31439;53.512;10.206;2024-01-30T07:28:48;15.68;;;10.52;;
45728;SDS011;31439;53.512;10.206;2024-01-30T07:31:13;19.27;;;12.05;;
45728;SDS011;31439;53.512;10.206;2024-01-30T07:33:39;16.08;;;10.70;;
45728;SDS011;31439;53.512;10.206;2024-01-30T07:36:04;17.05;;;12.35;;
45728;SDS011;31439;53.512;10.206;2024-01-30T07:38:33;20.00;;;12.05;;
45728;SDS011;31439;53.512;10.206;2024-01-30T07:40:59;17.10;;;11.52;;
45728;SDS011;31439;53.512;10.206;2024-01-30T07:43:25;17.80;;;11.25;;
45728;SDS011;31439;53.512;10.206;2024-01-30T07:45:50;17.23;;;11.60;;
45728;SDS011;31439;53.512;10.206;2024-01-30T07:48:16;17.25;;;11.13;;
45728;SDS011;31439;53.512;10.206;2024-01-30T07:50:42;16.80;;;11.27;;
45728;SDS011;31439;53.512;10.206;2024-01-30T07:53:07;19.40;;;12.40;;
45728;SDS011;31439;53.512;10.206;2024-01-30T07:55:33;19.00;;;11.40;;
45728;SDS011;31439;53.512;10.206;2024-01-30T08:01:26;19.00;;;12.35;;
45728;SDS011;31439;53.512;10.206;2024-01-30T08:03:52;20.98;;;11.88;;
45728;SDS011;31439;53.512;10.206;2024-01-30T08:06:18;20.08;;;12.40;;
45728;SDS011;31439;53.512;10.206;2024-01-30T08:08:44;16.38;;;10.93;;
45728;SDS011;31439;53.512;10.206;2024-01-30T08:11:10;16.88;;;11.43;;
45728;SDS011;31439;53.512;10.206;2024-01-30T08:13:35;17.77;;;11.60;;
45728;SDS011;31439;53.512;10.206;2024-01-30T08:16:01;21.15;;;12.40;;
45728;SDS011;31439;53.512;10.206;2024-01-30T08:18:27;17.02;;;12.13;;
45728;SDS011;31439;53.512;10.206;2024-01-30T08:20:52;19.90;;;11.85;;
45728;SDS011;31439;53.512;10.206;2024-01-30T08:23:18;17.35;;;11.90;;
45728;SDS011;31439;53.512;10.206;2024-01-30T08:25:43;19.33;;;13.18;;
45728;SDS011;31439;53.512;10.206;2024-01-30T08:28:09;18.48;;;12.27;;
45728;SDS011;31439;53.512;10.206;2024-01-30T08:30:35;18.83;;;12.38;;
45728;SDS011;31439;53.512;10.206;2024-01-30T08:33:00;18.10;;;11.75;;
45728;SDS011;31439;53.512;10.206;2024-01-30T08:35:26;21.63;;;12.07;;
45728;SDS011;31439;53.512;10.206;2024-01-30T08:37:51;20.77;;;12.40;;
45728;SDS011;31439;53.512;10.206;2024-01-30T08:40:19;20.00;;;12.77;;
45728;SDS011;31439;53.512;10.206;2024-01-30T08:42:45;19.13;;;12.18;;
45728;SDS011;31439;53.512;10.206;2024-01-30T08:45:10;24.08;;;13.02;;
45728;SDS011;31439;53.512;10.206;2024-01-30T08:47:36;22.35;;;13.05;;
45728;SDS011;31439;53.512;10.206;2024-01-30T08:50:02;16.80;;;11.27;;
45728;SDS011;31439;53.512;10.206;2024-01-30T08:52:28;19.73;;;12.00;;
45728;SDS011;31439;53.512;10.206;2024-01-30T08:54:54;16.08;;;11.65;;
45728;SDS011;31439;53.512;10.206;2024-01-30T08:57:20;17.95;;;11.82;;
45728;SDS011;31439;53.512;10.206;2024-01-30T08:59:45;18.70;;;11.77;;
45728;SDS011;31439;53.512;10.206;2024-01-30T09:02:12;18.40;;;11.93;;
45728;SDS011;31439;53.512;10.206;2024-01-30T09:04:41;17.17;;;11.98;;
45728;SDS011;31439;53.512;10.206;2024-01-30T09:07:07;23.67;;;11.95;;
45728;SDS011;31439;53.512;10.206;2024-01-30T09:09:34;18.95;;;11.20;;
45728;SDS011;31439;53.512;10.206;2024-01-30T09:11:59;19.77;;;11.25;;
45728;SDS011;31439;53.512;10.206;2024-01-30T09:14:29;19.77;;;11.93;;
45728;SDS011;31439;53.512;10.206;2024-01-30T09:16:55;15.90;;;10.50;;
45728;SDS011;31439;53.512;10.206;2024-01-30T09:19:21;15.32;;;10.75;;
45728;SDS011;31439;53.512;10.206;2024-01-30T09:21:47;15.40;;;11.05;;
45728;SDS011;31439;53.512;10.206;2024-01-30T09:24:12;16.35;;;11.70;;
45728;SDS011;31439;53.512;10.206;2024-01-30T09:26:38;17.63;;;11.70;;
45728;SDS011;31439;53.512;10.206;2024-01-30T09:29:03;16.90;;;10.98;;
45728;SDS011;31439;53.512;10.206;2024-01-30T09:31:29;17.02;;;11.20;;
45728;SDS011;31439;53.512;10.206;2024-01-30T09:33:55;14.50;;;11.20;;
45728;SDS011;31439;53.512;10.206;2024-01-30T09:36:20;17.67;;;11.25;;
45728;SDS011;31439;53.512;10.206;2024-01-30T09:38:47;21.88;;;12.38;;
45728;SDS011;31439;53.512;10.206;2024-01-30T09:41:12;16.20;;;11.15;;
45728;SDS011;31439;53.512;10.206;2024-01-30T09:43:38;18.88;;;11.35;;
45728;SDS011;31439;53.512;10.206;2024-01-30T09:46:05;15.23;;;11.20;;
45728;SDS011;31439;53.512;10.206;2024-01-30T09:48:32;18.95;;;11.50;;
45728;SDS011;31439;53.512;10.206;2024-01-30T09:50:59;18.10;;;11.10;;
45728;SDS011;31439;53.512;10.206;2024-01-30T09:53:25;16.63;;;11.73;;
45728;SDS011;31439;53.512;10.206;2024-01-30T09:55:51;17.60;;;10.65;;
45728;SDS011;31439;53.512;10.206;2024-01-30T09:58:17;16.15;;;11.57;;
45728;SDS011;31439;53.512;10.206;2024-01-30T10:00:42;15.82;;;10.77;;
45728;SDS011;31439;53.512;10.206;2024-01-30T10:03:08;17.60;;;11.73;;
45728;SDS011;31439;53.512;10.206;2024-01-30T10:05:35;19.77;;;11.68;;
45728;SDS011;31439;53.512;10.206;2024-01-30T10:08:05;18.80;;;11.77;;
45728;SDS011;31439;53.512;10.206;2024-01-30T10:10:33;16.92;;;11.52;;
45728;SDS011;31439;53.512;10.206;2024-01-30T10:12:59;20.42;;;11.30;;
45728;SDS011;31439;53.512;10.206;2024-01-30T10:15:25;21.23;;;12.35;;
45728;SDS011;31439;53.512;10.206;2024-01-30T10:17:52;16.45;;;11.15;;
45728;SDS011;31439;53.512;10.206;2024-01-30T10:20:18;18.27;;;11.85;;
45728;SDS011;31439;53.512;10.206;2024-01-30T10:22:44;16.38;;;11.50;;
45728;SDS011;31439;53.512;10.206;2024-01-30T10:25:11;16.92;;;11.60;;
45728;SDS011;31439;53.512;10.206;2024-01-30T10:27:36;20.25;;;12.40;;
45728;SDS011;31439;53.512;10.206;2024-01-30T10:30:04;19.13;;;12.70;;
45728;SDS011;31439;53.512;10.206;2024-01-30T10:32:30;17.90;;;12.32;;
45728;SDS011;31439;53.512;10.206;2024-01-30T10:34:56;17.23;;;11.27;;
45728;SDS011;31439;53.512;10.206;2024-01-30T10:37:22;15.70;;;10.95;;
45728;SDS011;31439;53.512;10.206;2024-01-30T10:39:50;16.38;;;11.23;;
45728;SDS011;31439;53.512;10.206;2024-01-30T10:42:20;16.35;;;10.85;;
45728;SDS011;31439;53.512;10.206;2024-01-30T10:45:00;16.95;;;11.68;;
45728;SDS011;31439;53.512;10.206;2024-01-30T10:47:37;17.52;;;11.98;;
45728;SDS011;31439;53.512;10.206;2024-01-30T10:50:05;18.60;;;11.85;;
45728;SDS011;31439;53.512;10.206;2024-01-30T10:52:33;17.85;;;10.95;;
45728;SDS011;31439;53.512;10.206;2024-01-30T10:55:00;19.55;;;11.80;;
45728;SDS011;31439;53.512;10.206;2024-01-30T10:57:26;16.08;;;11.52;;
45728;SDS011;31439;53.512;10.206;2024-01-30T10:59:53;16.35;;;11.07;;
45728;SDS011;31439;53.512;10.206;2024-01-30T11:02:23;15.65;;;10.93;;
45728;SDS011;31439;53.512;10.206;2024-01-30T11:04:49;18.35;;;11.35;;
45728;SDS011;31439;53.512;10.206;2024-01-30T11:07:23;16.27;;;10.77;;
45728;SDS011;31439;53.512;10.206;2024-01-30T11:09:51;19.23;;;11.40;;
45728;SDS011;31439;53.512;10.206;2024-01-30T11:12:21;17.13;;;11.85;;
45728;SDS011;31439;53.512;10.206;2024-01-30T11:14:48;17.58;;;11.65;;
45728;SDS011;31439;53.512;10.206;2024-01-30T11:17:15;16.67;;;10.95;;
45728;SDS011;31439;53.512;10.206;2024-01-30T11:19:41;17.85;;;10.75;;
45728;SDS011;31439;53.512;10.206;2024-01-30T11:22:07;17.60;;;10.98;;
45728;SDS011;31439;53.512;10.206;2024-01-30T11:24:42;20.02;;;11.45;;
45728;SDS011;31439;53.512;10.206;2024-01-30T11:27:08;20.20;;;12.00;;
45728;SDS011;31439;53.512;10.206;2024-01-30T11:29:37;16.33;;;10.10;;
45728;SDS011;31439;53.512;10.206;2024-01-30T11:32:05;15.48;;;10.55;;
45728;SDS011;31439;53.512;10.206;2024-01-30T11:34:33;18.25;;;10.77;;
45728;SDS011;31439;53.512;10.206;2024-01-30T11:37:03;15.80;;;10.60;;
45728;SDS011;31439;53.512;10.206;2024-01-30T11:39:34;17.88;;;10.68;;
45728;SDS011;31439;53.512;10.206;2024-01-30T11:42:01;17.92;;;10.48;;
45728;SDS011;31439;53.512;10.206;2024-01-30T11:44:30;17.48;;;11.05;;
45728;SDS011;31439;53.512;10.206;2024-01-30T11:47:04;16.00;;;10.10;;
45728;SDS011;31439;53.512;10.206;2024-01-30T11:49:30;16.00;;;10.35;;
45728;SDS011;31439;53.512;10.206;2024-01-30T11:51:56;14.10;;;10.23;;
45728;SDS011;31439;53.512;10.206;2024-01-30T11:54:21;17.25;;;10.82;;
45728;SDS011;31439;53.512;10.206;2024-01-30T11:56:47;19.50;;;10.77;;
45728;SDS011;31439;53.512;10.206;2024-01-30T11:59:13;18.27;;;10.65;;
45728;SDS011;31439;53.512;10.206;2024-01-30T12:01:39;15.40;;;11.35;;
45728;SDS011;31439;53.512;10.206;2024-01-30T12:04:05;21.15;;;10.65;;
45728;SDS011;31439;53.512;10.206;2024-01-30T12:06:34;21.25;;;11.38;;
45728;SDS011;31439;53.512;10.206;2024-01-30T12:09:00;16.77;;;10.90;;
45728;SDS011;31439;53.512;10.206;2024-01-30T12:11:29;15.55;;;10.25;;
45728;SDS011;31439;53.512;10.206;2024-01-30T12:13:55;15.98;;;10.55;;
45728;SDS011;31439;53.512;10.206;2024-01-30T12:16:21;13.05;;;9.90;;
45728;SDS011;31439;53.512;10.206;2024-01-30T12:18:47;15.07;;;10.30;;
45728;SDS011;31439;53.512;10.206;2024-01-30T12:21:15;17.50;;;9.90;;
45728;SDS011;31439;53.512;10.206;2024-01-30T12:23:42;15.38;;;10.60;;
45728;SDS011;31439;53.512;10.206;2024-01-30T12:26:08;17.00;;;10.45;;
45728;SDS011;31439;53.512;10.206;2024-01-30T12:28:35;17.00;;;10.35;;
45728;SDS011;31439;53.512;10.206;2024-01-30T12:31:01;14.98;;;10.25;;
45728;SDS011;31439;53.512;10.206;2024-01-30T12:33:28;15.48;;;9.35;;
45728;SDS011;31439;53.512;10.206;2024-01-30T12:35:54;16.65;;;10.20;;
45728;SDS011;31439;53.512;10.206;2024-01-30T12:38:20;15.75;;;9.55;;
45728;SDS011;31439;53.512;10.206;2024-01-30T12:40:46;17.13;;;10.43;;
45728;SDS011;31439;53.512;10.206;2024-01-30T12:43:13;14.98;;;9.80;;
45728;SDS011;31439;53.512;10.206;2024-01-30T12:45:38;14.50;;;9.82;;
45728;SDS011;31439;53.512;10.206;2024-01-30T12:48:04;14.43;;;9.57;;
45728;SDS011;31439;53.512;10.206;2024-01-30T12:50:30;12.80;;;9.23;;
45728;SDS011;31439;53.512;10.206;2024-01-30T12:52:56;16.88;;;9.98;;
45728;SDS011;31439;53.512;10.206;2024-01-30T12:55:22;16.75;;;10.00;;
45728;SDS011;31439;53.512;10.206;2024-01-30T12:57:49;15.32;;;9.07;;
45728;SDS011;31439;53.512;10.206;2024-01-30T13:00:15;15.43;;;9.80;;
45728;SDS011;31439;53.512;10.206;2024-01-30T13:02:42;16.58;;;9.68;;
45728;SDS011;31439;53.512;10.206;2024-01-30T13:05:10;14.40;;;8.95;;
45728;SDS011;31439;53.512;10.206;2024-01-30T13:07:35;15.32;;;9.18;;
45728;SDS011;31439;53.512;10.206;2024-01-30T13:10:02;15.05;;;9.38;;
45728;SDS011;31439;53.512;10.206;2024-01-30T13:12:29;14.70;;;8.90;;
45728;SDS011;31439;53.512;10.206;2024-01-30T13:14:55;13.40;;;8.93;;
45728;SDS011;31439;53.512;10.206;2024-01-30T13:17:20;14.38;;;9.43;;
45728;SDS011;31439;53.512;10.206;2024-01-30T13:19:46;13.52;;;8.85;;
45728;SDS011;31439;53.512;10.206;2024-01-30T13:22:14;14.23;;;9.38;;
45728;SDS011;31439;53.512;10.206;2024-01-30T13:24:40;11.95;;;8.77;;
45728;SDS011;31439;53.512;10.206;2024-01-30T13:27:06;16.45;;;8.98;;
45728;SDS011;31439;53.512;10.206;2024-01-30T13:29:32;15.18;;;8.63;;
45728;SDS011;31439;53.512;10.206;2024-01-30T13:31:58;14.63;;;9.10;;
45728;SDS011;31439;53.512;10.206;2024-01-30T13:34:23;15.52;;;8.50;;
45728;SDS011;31439;53.512;10.206;2024-01-30T13:36:49;14.82;;;10.13;;
45728;SDS011;31439;53.512;10.206;2024-01-30T13:39:15;15.73;;;9.45;;
45728;SDS011;31439;53.512;10.206;2024-01-30T13:41:41;16.52;;;9.40;;
45728;SDS011;31439;53.512;10.206;2024-01-30T13:44:07;14.82;;;8.23;;
45728;SDS011;31439;53.512;10.206;2024-01-30T13:46:34;14.90;;;9.25;;
45728;SDS011;31439;53.512;10.206;2024-01-30T13:49:00;15.35;;;9.27;;
45728;SDS011;31439;53.512;10.206;2024-01-30T13:51:26;15.60;;;9.18;;
45728;SDS011;31439;53.512;10.206;2024-01-30T13:53:52;21.55;;;9.27;;
45728;SDS011;31439;53.512;10.206;2024-01-30T13:56:17;17.25;;;9.93;;
45728;SDS011;31439;53.512;10.206;2024-01-30T13:58:44;14.18;;;8.85;;
45728;SDS011;31439;53.512;10.206;2024-01-30T14:01:10;12.63;;;8.52;;
45728;SDS011;31439;53.512;10.206;2024-01-30T14:03:35;14.18;;;8.75;;
45728;SDS011;31439;53.512;10.206;2024-01-30T14:06:09;12.93;;;7.63;;
45728;SDS011;31439;53.512;10.206;2024-01-30T14:08:35;10.73;;;8.13;;
45728;SDS011;31439;53.512;10.206;2024-01-30T14:11:01;15.10;;;8.68;;
45728;SDS011;31439;53.512;10.206;2024-01-30T14:13:26;12.93;;;8.48;;